createdAt,value
2018-10-17T00:01:37.928Z,8.40
2018-10-17T00:04:06.598Z,8.30
2018-10-17T00:06:35.585Z,8.30
2018-10-17T00:09:06.505Z,8.30
2018-10-17T00:11:35.793Z,8.20
2018-10-17T00:14:04.333Z,8.20
2018-10-17T00:16:32.855Z,8.30
2018-10-17T00:19:01.573Z,8.20
2018-10-17T00:21:30.332Z,8.10
2018-10-17T00:23:59.378Z,8.10
2018-10-17T00:26:28.185Z,8.10
2018-10-17T00:28:57.034Z,8.10
2018-10-17T00:31:26.183Z,8.10
2018-10-17T00:33:54.961Z,8.20
2018-10-17T00:36:24.165Z,8.10
2018-10-17T00:38:52.956Z,8.10
2018-10-17T00:41:21.471Z,8.00
2018-10-17T00:43:50.257Z,8.00
2018-10-17T00:46:19.061Z,7.90
2018-10-17T00:48:47.766Z,7.90
2018-10-17T00:51:16.877Z,7.90
2018-10-17T00:53:46.007Z,7.80
2018-10-17T00:56:14.917Z,7.80
2018-10-17T00:58:53.774Z,7.80
2018-10-17T01:01:23.015Z,7.80
2018-10-17T01:03:52.220Z,7.80
2018-10-17T01:06:21.329Z,7.70
2018-10-17T01:08:50.226Z,7.70
2018-10-17T01:11:19.212Z,7.70
2018-10-17T01:13:49.330Z,7.70
2018-10-17T01:16:17.980Z,7.70
2018-10-17T01:18:46.598Z,7.70
2018-10-17T01:21:15.321Z,7.80
2018-10-17T01:23:44.528Z,7.60
2018-10-17T01:26:13.381Z,7.60
2018-10-17T01:28:42.417Z,7.50
2018-10-17T01:31:11.465Z,7.50
2018-10-17T01:33:40.526Z,7.40
2018-10-17T01:36:09.339Z,7.50
2018-10-17T01:38:37.938Z,7.40
2018-10-17T01:41:06.818Z,7.40
2018-10-17T01:43:35.649Z,7.40
2018-10-17T01:46:04.498Z,7.30
2018-10-17T01:48:33.387Z,7.30
2018-10-17T01:51:02.173Z,7.30
2018-10-17T01:53:31.260Z,7.30
2018-10-17T01:56:00.658Z,7.20
2018-10-17T01:58:29.542Z,7.30
2018-10-17T02:00:58.794Z,7.30
2018-10-17T02:03:27.649Z,7.30
2018-10-17T02:05:56.544Z,7.20
2018-10-17T02:08:25.357Z,7.20
2018-10-17T02:10:54.226Z,7.20
2018-10-17T02:13:23.359Z,7.10
2018-10-17T02:15:53.636Z,7.20
2018-10-17T02:18:22.775Z,7.20
2018-10-17T02:20:51.866Z,7.20
2018-10-17T02:23:20.525Z,7.10
2018-10-17T02:25:49.374Z,7.00
2018-10-17T02:28:18.952Z,7.00
2018-10-17T02:30:47.646Z,7.00
2018-10-17T02:33:16.390Z,7.00
2018-10-17T02:35:45.868Z,7.10
2018-10-17T02:38:15.066Z,7.00
2018-10-17T02:40:43.881Z,7.00
2018-10-17T02:43:12.482Z,7.00
2018-10-17T02:45:41.183Z,6.90
2018-10-17T02:48:10.242Z,6.90
2018-10-17T02:50:39.016Z,6.90
2018-10-17T02:53:08.303Z,6.90
2018-10-17T02:55:38.290Z,6.90
2018-10-17T02:58:06.965Z,6.90
2018-10-17T03:00:35.694Z,6.80
2018-10-17T03:03:05.001Z,6.80
2018-10-17T03:05:33.578Z,6.80
2018-10-17T03:08:02.161Z,6.80
2018-10-17T03:10:30.941Z,6.80
2018-10-17T03:12:59.601Z,6.80
2018-10-17T03:15:28.225Z,6.80
2018-10-17T03:17:56.845Z,6.80
2018-10-17T03:20:25.377Z,6.80
2018-10-17T03:22:54.015Z,6.80
2018-10-17T03:25:22.721Z,6.70
2018-10-17T03:27:51.663Z,6.70
2018-10-17T03:30:20.386Z,6.60
2018-10-17T03:32:48.985Z,6.60
2018-10-17T03:35:17.661Z,6.60
2018-10-17T03:37:46.225Z,6.60
2018-10-17T03:40:14.841Z,6.70
2018-10-17T03:42:43.523Z,6.60
2018-10-17T03:45:12.244Z,6.50
2018-10-17T03:47:40.985Z,6.50
2018-10-17T03:50:09.635Z,6.40
2018-10-17T03:52:38.330Z,6.70
2018-10-17T03:55:07.168Z,6.70
2018-10-17T03:57:35.805Z,6.50
2018-10-17T04:00:04.504Z,6.50
2018-10-17T04:05:14.742Z,6.40
2018-10-17T04:07:43.919Z,6.30
2018-10-17T04:10:12.902Z,6.30
2018-10-17T04:12:41.818Z,6.30
2018-10-17T04:15:10.780Z,6.30
2018-10-17T04:17:39.698Z,6.20
2018-10-17T04:20:08.699Z,6.20
2018-10-17T04:22:37.666Z,6.20
2018-10-17T04:25:08.024Z,6.30
2018-10-17T04:27:37.334Z,6.20
2018-10-17T04:30:07.189Z,6.20
2018-10-17T04:32:38.129Z,6.20
2018-10-17T04:35:07.117Z,6.20
2018-10-17T04:37:36.114Z,6.20
2018-10-17T04:40:05.479Z,6.20
2018-10-17T04:42:34.687Z,6.20
2018-10-17T04:45:04.360Z,6.20
2018-10-17T04:47:33.352Z,6.10
2018-10-17T04:50:02.315Z,6.10
2018-10-17T04:52:31.201Z,6.10
2018-10-17T04:55:00.249Z,6.10
2018-10-17T04:57:29.030Z,6.00
2018-10-17T04:59:58.387Z,6.00
2018-10-17T05:02:27.241Z,6.00
2018-10-17T05:04:56.096Z,6.00
2018-10-17T05:07:24.824Z,6.00
2018-10-17T05:09:53.390Z,6.00
2018-10-17T05:12:22.262Z,6.00
2018-10-17T05:14:51.120Z,5.90
2018-10-17T05:17:20.230Z,5.90
2018-10-17T05:19:49.425Z,5.90
2018-10-17T05:24:57.766Z,5.90
2018-10-17T05:27:28.840Z,5.90
2018-10-17T05:30:00.291Z,5.90
2018-10-17T05:32:29.898Z,5.90
2018-10-17T05:34:59.564Z,5.90
2018-10-17T05:37:28.922Z,5.90
2018-10-17T05:39:58.106Z,5.90
2018-10-17T05:42:27.304Z,5.90
2018-10-17T05:44:56.297Z,5.90
2018-10-17T05:47:26.009Z,5.90
2018-10-17T05:49:55.193Z,6.00
2018-10-17T05:52:24.607Z,6.00
2018-10-17T05:54:53.802Z,6.00
2018-10-17T05:57:23.003Z,6.00
2018-10-17T05:59:52.959Z,6.00
2018-10-17T06:02:28.469Z,6.00
2018-10-17T06:04:57.837Z,6.10
2018-10-17T06:07:27.167Z,6.00
2018-10-17T06:09:56.673Z,6.10
2018-10-17T06:12:25.731Z,6.10
2018-10-17T06:14:55.319Z,6.10
2018-10-17T06:17:24.852Z,6.10
2018-10-17T06:19:53.944Z,6.10
2018-10-17T06:22:23.424Z,6.10
2018-10-17T06:24:53.738Z,6.20
2018-10-17T06:27:22.687Z,6.30
2018-10-17T06:29:51.860Z,6.40
2018-10-17T06:32:21.342Z,6.50
2018-10-17T06:34:52.583Z,6.60
2018-10-17T06:37:21.634Z,6.70
2018-10-17T06:39:50.909Z,6.80
2018-10-17T06:42:20.530Z,6.90
2018-10-17T06:44:49.743Z,7.00
2018-10-17T06:47:19.217Z,7.30
2018-10-17T06:49:53.144Z,7.50
2018-10-17T06:52:22.457Z,7.70
2018-10-17T06:54:51.790Z,8.00
2018-10-17T06:57:20.823Z,7.90
2018-10-17T06:59:50.563Z,8.30
2018-10-17T07:02:20.426Z,8.60
2018-10-17T07:04:50.257Z,8.90
2018-10-17T07:07:19.438Z,8.90
2018-10-17T07:09:48.620Z,9.30
2018-10-17T07:12:17.853Z,9.90
2018-10-17T07:14:47.039Z,10.20
2018-10-17T07:17:16.866Z,11.30
2018-10-17T07:19:46.146Z,12.60
2018-10-17T07:22:15.398Z,13.70
2018-10-17T07:24:44.538Z,14.80
2018-10-17T07:27:13.430Z,15.80
2018-10-17T07:29:42.983Z,16.70
2018-10-17T07:32:12.638Z,17.70
2018-10-17T07:34:41.626Z,18.30
2018-10-17T07:37:10.668Z,19.00
2018-10-17T07:39:39.626Z,20.00
2018-10-17T07:42:08.961Z,20.50
2018-10-17T07:44:38.011Z,20.70
2018-10-17T07:47:07.526Z,21.30
2018-10-17T07:49:36.675Z,22.20
2018-10-17T07:52:06.030Z,22.30
2018-10-17T07:54:34.878Z,22.50
2018-10-17T07:57:03.856Z,22.80
2018-10-17T07:59:32.748Z,23.20
2018-10-17T08:02:01.654Z,23.30
2018-10-17T08:04:30.936Z,23.60
2018-10-17T08:07:00.497Z,23.90
2018-10-17T08:09:29.331Z,24.30
2018-10-17T08:11:58.368Z,24.70
2018-10-17T08:14:27.184Z,25.10
2018-10-17T08:16:56.181Z,25.20
2018-10-17T08:19:24.879Z,25.40
2018-10-17T08:21:54.636Z,25.60
2018-10-17T08:24:23.679Z,25.60
2018-10-17T08:26:52.572Z,25.70
2018-10-17T08:29:21.548Z,26.30
2018-10-17T08:31:50.285Z,26.60
2018-10-17T08:34:19.123Z,27.00
2018-10-17T08:36:48.354Z,27.20
2018-10-17T08:39:16.969Z,27.30
2018-10-17T08:41:45.756Z,27.60
2018-10-17T08:44:14.558Z,27.60
2018-10-17T08:46:43.129Z,27.70
2018-10-17T08:49:12.247Z,27.50
2018-10-17T08:51:41.048Z,26.60
2018-10-17T08:54:09.882Z,27.10
2018-10-17T08:56:38.700Z,27.00
2018-10-17T08:59:07.680Z,27.60
2018-10-17T09:01:37.041Z,27.40
2018-10-17T09:04:07.013Z,27.80
2018-10-17T09:06:35.723Z,28.40
2018-10-17T09:09:07.993Z,28.90
2018-10-17T09:11:37.248Z,28.90
2018-10-17T09:14:07.182Z,29.00
2018-10-17T09:16:36.132Z,28.90
2018-10-17T09:19:04.941Z,29.20
2018-10-17T09:21:34.131Z,29.30
2018-10-17T09:24:02.551Z,29.50
2018-10-17T09:26:31.232Z,29.70
2018-10-17T09:29:00.048Z,29.80
2018-10-17T09:31:28.806Z,29.60
2018-10-17T09:33:57.845Z,29.60
2018-10-17T09:36:27.100Z,30.00
2018-10-17T09:38:56.256Z,30.30
2018-10-17T09:41:25.302Z,29.80
2018-10-17T09:43:54.741Z,29.70
2018-10-17T09:46:24.090Z,30.10
2018-10-17T09:48:53.120Z,30.60
2018-10-17T09:51:22.011Z,31.00
2018-10-17T09:53:51.197Z,30.70
2018-10-17T09:56:20.284Z,30.70
2018-10-17T09:58:52.295Z,31.10
2018-10-17T10:01:27.061Z,30.90
2018-10-17T10:03:56.284Z,31.10
2018-10-17T10:06:25.186Z,31.10
2018-10-17T10:08:54.206Z,30.70
2018-10-17T10:11:23.172Z,30.50
2018-10-17T10:13:52.093Z,30.30
2018-10-17T10:16:20.889Z,30.30
2018-10-17T10:18:49.626Z,30.10
2018-10-17T10:21:18.422Z,29.20
2018-10-17T10:23:47.362Z,29.70
2018-10-17T10:26:16.077Z,30.20
2018-10-17T10:28:44.902Z,30.30
2018-10-17T10:31:13.557Z,30.00
2018-10-17T10:33:42.351Z,30.40
2018-10-17T10:36:11.161Z,30.60
2018-10-17T10:38:39.679Z,30.50
2018-10-17T10:41:09.241Z,30.40
2018-10-17T10:43:38.414Z,30.60
2018-10-17T10:46:08.088Z,30.30
2018-10-17T10:48:37.557Z,30.70
2018-10-17T10:51:06.852Z,30.70
2018-10-17T10:53:35.483Z,30.70
2018-10-17T10:56:05.073Z,31.30
2018-10-17T10:58:33.952Z,31.30
2018-10-17T11:01:03.163Z,31.30
2018-10-17T11:03:32.303Z,31.50
2018-10-17T11:06:09.020Z,31.50
2018-10-17T11:08:38.173Z,31.70
2018-10-17T11:11:07.331Z,30.90
2018-10-17T11:13:36.707Z,30.70
2018-10-17T11:16:06.095Z,31.50
2018-10-17T11:18:35.025Z,31.70
2018-10-17T11:21:03.797Z,32.10
2018-10-17T11:23:32.443Z,31.90
2018-10-17T11:26:01.102Z,31.70
2018-10-17T11:28:30.019Z,31.70
2018-10-17T11:30:58.814Z,31.90
2018-10-17T11:33:27.583Z,32.10
2018-10-17T11:35:56.268Z,32.40
2018-10-17T11:38:25.148Z,32.70
2018-10-17T11:40:53.803Z,32.90
2018-10-17T11:43:22.598Z,33.20
2018-10-17T11:45:51.591Z,33.10
2018-10-17T11:48:20.521Z,32.90
2018-10-17T11:50:49.614Z,32.30
2018-10-17T11:53:18.418Z,32.20
2018-10-17T11:55:47.270Z,32.50
2018-10-17T11:58:15.974Z,32.60
2018-10-17T12:00:44.811Z,32.90
2018-10-17T12:03:14.108Z,32.90
2018-10-17T12:05:42.903Z,32.70
2018-10-17T12:08:11.812Z,32.10
2018-10-17T12:10:40.760Z,32.50
2018-10-17T12:13:09.656Z,32.50
2018-10-17T12:15:42.235Z,32.20
2018-10-17T12:18:11.901Z,31.90
2018-10-17T12:20:40.809Z,31.80
2018-10-17T12:23:09.672Z,32.00
2018-10-17T12:25:38.525Z,31.60
2018-10-17T12:28:07.379Z,31.40
2018-10-17T12:30:36.205Z,31.70
2018-10-17T12:33:05.182Z,31.70
2018-10-17T12:35:34.095Z,32.10
2018-10-17T12:38:02.741Z,32.00
2018-10-17T12:40:32.154Z,31.70
2018-10-17T12:43:01.078Z,31.30
2018-10-17T12:45:30.589Z,31.60
2018-10-17T12:47:59.689Z,31.80
2018-10-17T12:50:28.607Z,32.00
2018-10-17T12:52:58.546Z,32.40
2018-10-17T12:55:28.003Z,32.20
2018-10-17T12:57:56.959Z,32.20
2018-10-17T13:00:25.878Z,32.30
2018-10-17T13:02:54.933Z,32.00
2018-10-17T13:05:24.181Z,31.80
2018-10-17T13:07:53.383Z,31.50
2018-10-17T13:10:22.273Z,31.70
2018-10-17T13:12:51.276Z,31.80
2018-10-17T13:15:20.528Z,31.40
2018-10-17T13:17:49.605Z,31.80
2018-10-17T13:20:18.607Z,31.40
2018-10-17T13:22:47.679Z,31.50
2018-10-17T13:25:16.660Z,30.50
2018-10-17T13:27:45.628Z,30.70
2018-10-17T13:30:14.710Z,31.00
2018-10-17T13:32:43.820Z,30.90
2018-10-17T13:35:13.095Z,31.30
2018-10-17T13:37:42.115Z,31.00
2018-10-17T13:40:11.282Z,31.30
2018-10-17T13:42:40.564Z,30.90
2018-10-17T13:45:09.502Z,31.20
2018-10-17T13:47:38.862Z,31.60
2018-10-17T13:50:07.812Z,31.30
2018-10-17T13:55:10.886Z,31.40
2018-10-17T13:57:39.828Z,31.00
2018-10-17T14:00:11.084Z,30.80
2018-10-17T14:02:40.106Z,31.20
2018-10-17T14:05:09.018Z,30.30
2018-10-17T14:07:38.227Z,30.40
2018-10-17T14:10:07.561Z,30.60
2018-10-17T14:12:36.776Z,30.90
2018-10-17T14:15:06.118Z,30.50
2018-10-17T14:17:34.885Z,29.60
2018-10-17T14:20:03.670Z,29.90
2018-10-17T14:22:32.487Z,29.40
2018-10-17T14:25:01.685Z,29.50
2018-10-17T14:27:30.567Z,29.70
2018-10-17T14:29:59.462Z,29.30
2018-10-17T14:32:28.264Z,29.10
2018-10-17T14:34:57.145Z,28.90
2018-10-17T14:37:25.955Z,28.90
2018-10-17T14:39:54.825Z,29.10
2018-10-17T14:42:23.813Z,29.00
2018-10-17T14:44:52.730Z,28.20
2018-10-17T14:47:21.551Z,28.30
2018-10-17T14:49:50.500Z,28.30
2018-10-17T14:52:19.539Z,27.60
2018-10-17T14:54:48.516Z,28.00
2018-10-17T14:57:17.292Z,27.80
2018-10-17T14:59:46.153Z,27.40
2018-10-17T15:02:14.999Z,27.10
2018-10-17T15:04:43.832Z,26.60
2018-10-17T15:07:12.709Z,26.20
2018-10-17T15:09:41.570Z,26.20
2018-10-17T15:12:10.740Z,26.00
2018-10-17T15:14:39.697Z,25.70
2018-10-17T15:17:08.784Z,25.60
2018-10-17T15:19:37.819Z,25.00
2018-10-17T15:22:06.845Z,24.80
2018-10-17T15:24:36.030Z,24.70
2018-10-17T15:27:05.277Z,24.90
2018-10-17T15:29:33.957Z,24.70
2018-10-17T15:32:02.797Z,24.70
2018-10-17T15:34:32.386Z,24.50
2018-10-17T15:37:02.097Z,24.40
2018-10-17T15:39:31.800Z,24.30
2018-10-17T15:42:01.624Z,24.20
2018-10-17T15:44:31.896Z,23.80
2018-10-17T15:47:01.253Z,23.70
2018-10-17T15:49:31.075Z,23.30
2018-10-17T15:52:00.477Z,22.90
2018-10-17T15:54:31.353Z,22.60
2018-10-17T15:57:02.263Z,22.30
2018-10-17T15:59:33.045Z,22.00
2018-10-17T16:02:03.778Z,21.70
2018-10-17T16:04:36.609Z,21.40
2018-10-17T16:07:07.321Z,21.10
2018-10-17T16:09:38.337Z,20.80
2018-10-17T16:12:09.360Z,20.50
2018-10-17T16:14:42.515Z,20.20
2018-10-17T16:17:12.370Z,20.00
2018-10-17T16:19:41.785Z,19.70
2018-10-17T16:22:11.969Z,19.50
2018-10-17T16:24:41.711Z,19.30
2018-10-17T16:27:11.309Z,19.00
2018-10-17T16:29:46.063Z,18.80
2018-10-17T16:32:15.635Z,18.70
2018-10-17T16:34:44.732Z,18.50
2018-10-17T16:37:13.747Z,18.30
2018-10-17T16:39:42.791Z,18.20
2018-10-17T16:42:12.809Z,18.10
2018-10-17T16:44:41.751Z,17.80
2018-10-17T16:47:16.841Z,17.70
2018-10-17T16:49:45.899Z,17.50
2018-10-17T16:52:14.896Z,17.40
2018-10-17T16:54:43.932Z,17.30
2018-10-17T16:57:14.531Z,17.20
2018-10-17T16:59:53.452Z,17.10
2018-10-17T17:02:22.350Z,17.00
2018-10-17T17:04:51.007Z,16.80
2018-10-17T17:07:19.849Z,16.70
2018-10-17T17:09:48.443Z,16.60
2018-10-17T17:12:17.145Z,16.50
2018-10-17T17:14:45.727Z,16.40
2018-10-17T17:17:14.271Z,16.30
2018-10-17T17:19:43.373Z,16.20
2018-10-17T17:22:12.597Z,16.10
2018-10-17T17:24:41.765Z,16.00
2018-10-17T17:27:10.435Z,15.90
2018-10-17T17:29:39.119Z,15.90
2018-10-17T17:32:08.269Z,15.80
2018-10-17T17:34:36.841Z,15.70
2018-10-17T17:37:05.971Z,15.50
2018-10-17T17:39:34.620Z,15.40
2018-10-17T17:42:03.301Z,15.30
2018-10-17T17:44:32.483Z,15.20
2018-10-17T17:47:01.304Z,15.10
2018-10-17T17:49:41.944Z,15.10
2018-10-17T17:52:24.703Z,15.00
2018-10-17T17:54:57.016Z,14.90
2018-10-17T17:57:36.722Z,14.90
2018-10-17T18:00:12.919Z,14.80
2018-10-17T18:02:43.477Z,14.70
2018-10-17T18:05:14.164Z,14.70
2018-10-17T18:07:45.629Z,14.50
2018-10-17T18:10:15.147Z,14.50
2018-10-17T18:12:44.847Z,14.40
2018-10-17T18:15:17.421Z,14.30
2018-10-17T18:17:46.178Z,14.20
2018-10-17T18:20:15.788Z,14.20
2018-10-17T18:22:44.465Z,14.10
2018-10-17T18:25:13.034Z,14.10
2018-10-17T18:27:43.253Z,14.00
2018-10-17T18:30:12.377Z,13.90
2018-10-17T18:32:45.989Z,13.90
2018-10-17T18:35:14.939Z,13.80
2018-10-17T18:37:44.405Z,13.70
2018-10-17T18:40:13.280Z,13.60
2018-10-17T18:42:41.858Z,13.60
2018-10-17T18:45:10.576Z,13.50
2018-10-17T18:47:39.395Z,13.50
2018-10-17T18:50:08.509Z,13.40
2018-10-17T18:52:37.153Z,13.40
2018-10-17T18:55:06.603Z,13.30
2018-10-17T18:57:36.169Z,13.30
2018-10-17T19:00:06.096Z,13.10
2018-10-17T19:02:35.221Z,13.10
2018-10-17T19:05:03.963Z,13.00
2018-10-17T19:07:32.663Z,12.90
2018-10-17T19:10:01.372Z,12.90
2018-10-17T19:12:30.669Z,12.80
2018-10-17T19:14:59.269Z,12.80
2018-10-17T19:17:27.817Z,12.70
2018-10-17T19:19:56.400Z,12.70
2018-10-17T19:22:25.315Z,12.60
2018-10-17T19:24:53.914Z,12.60
2018-10-17T19:27:24.333Z,12.50
2018-10-17T19:29:52.890Z,12.50
2018-10-17T19:32:21.572Z,12.40
2018-10-17T19:34:50.253Z,12.30
2018-10-17T19:37:18.876Z,12.30
2018-10-17T19:39:47.525Z,12.30
2018-10-17T19:42:16.177Z,12.30
2018-10-17T19:44:44.757Z,12.20
2018-10-17T19:47:14.025Z,12.10
2018-10-17T19:49:42.716Z,12.10
2018-10-17T19:52:11.274Z,12.00
2018-10-17T19:54:39.968Z,12.00
2018-10-17T19:57:08.615Z,11.90
2018-10-17T19:59:37.275Z,11.90
2018-10-17T20:02:06.675Z,11.80
2018-10-17T20:04:35.364Z,11.70
2018-10-17T20:07:03.923Z,11.70
2018-10-17T20:09:32.512Z,11.60
2018-10-17T20:12:01.127Z,11.60
2018-10-17T20:14:30.257Z,11.50
2018-10-17T20:16:59.903Z,11.40
2018-10-17T20:19:28.921Z,11.30
2018-10-17T20:21:57.946Z,11.20
2018-10-17T20:24:27.036Z,11.20
2018-10-17T20:26:56.856Z,11.10
2018-10-17T20:29:25.746Z,11.00
2018-10-17T20:31:56.060Z,11.00
2018-10-17T20:34:25.225Z,11.00
2018-10-17T20:36:54.124Z,10.90
2018-10-17T20:39:22.954Z,10.90
2018-10-17T20:41:52.059Z,11.00
2018-10-17T20:44:21.930Z,11.00
2018-10-17T20:46:50.930Z,10.90
2018-10-17T20:53:46.473Z,10.80
2018-10-17T20:56:15.228Z,10.70
2018-10-17T20:58:44.160Z,10.60
2018-10-17T21:01:13.019Z,10.60
2018-10-17T21:03:41.814Z,10.50
2018-10-17T21:06:10.577Z,10.50
2018-10-17T21:08:39.509Z,10.40
2018-10-17T21:11:08.240Z,10.30
2018-10-17T21:13:37.165Z,10.30
2018-10-17T21:16:06.393Z,10.30
2018-10-17T21:18:35.894Z,10.20
2018-10-17T21:21:04.598Z,10.20
2018-10-17T21:23:33.364Z,10.20
2018-10-17T21:26:02.270Z,10.10
2018-10-17T21:28:31.499Z,10.00
2018-10-17T21:31:00.445Z,10.10
2018-10-17T21:33:29.322Z,10.00
2018-10-17T21:35:58.423Z,10.00
2018-10-17T21:38:27.341Z,10.00
2018-10-17T21:40:56.288Z,9.90
2018-10-17T21:43:25.353Z,9.80
2018-10-17T21:45:54.325Z,9.70
2018-10-17T21:48:23.186Z,9.70
2018-10-17T21:50:52.004Z,9.60
2018-10-17T21:53:20.856Z,9.60
2018-10-17T21:55:49.639Z,9.60
2018-10-17T21:58:18.407Z,9.50
2018-10-17T22:00:47.195Z,9.50
2018-10-17T22:03:16.004Z,9.40
2018-10-17T22:05:44.725Z,9.40
2018-10-17T22:08:13.584Z,9.30
2018-10-17T22:10:42.554Z,9.30
2018-10-17T22:13:11.523Z,9.30
2018-10-17T22:15:40.421Z,9.20
2018-10-17T22:18:09.258Z,9.20
2018-10-17T22:20:38.203Z,9.20
2018-10-17T22:23:06.995Z,9.20
2018-10-17T22:25:35.851Z,9.10
2018-10-17T22:28:04.946Z,9.10
2018-10-17T22:30:33.647Z,9.00
2018-10-17T22:33:03.021Z,9.00
2018-10-17T22:35:31.801Z,9.00
2018-10-17T22:38:00.593Z,9.00
2018-10-17T22:40:29.813Z,9.00
2018-10-17T22:43:00.736Z,8.90
2018-10-17T22:45:29.652Z,8.90
2018-10-17T22:47:58.665Z,8.90
2018-10-17T22:50:27.484Z,8.90
2018-10-17T22:52:56.301Z,9.00
2018-10-17T22:55:25.040Z,8.90
2018-10-17T22:57:53.846Z,8.80
2018-10-17T23:00:22.756Z,8.80
2018-10-17T23:02:51.801Z,8.70
2018-10-17T23:05:20.928Z,8.70
2018-10-17T23:07:49.726Z,8.60
2018-10-17T23:10:18.781Z,8.60
2018-10-17T23:12:47.652Z,8.50
2018-10-17T23:15:16.802Z,8.50
2018-10-17T23:17:45.633Z,8.50
2018-10-17T23:20:14.554Z,8.50
2018-10-17T23:25:25.801Z,8.40
2018-10-17T23:27:54.719Z,8.40
2018-10-17T23:30:23.580Z,8.40
2018-10-17T23:32:52.617Z,8.30
2018-10-17T23:35:23.556Z,8.30
2018-10-17T23:37:52.783Z,8.20
2018-10-17T23:40:21.790Z,8.20
2018-10-17T23:42:50.724Z,8.20
2018-10-17T23:45:19.885Z,8.30
2018-10-17T23:47:49.002Z,8.30
2018-10-17T23:50:18.106Z,8.20
2018-10-17T23:52:47.023Z,8.20
2018-10-17T23:55:16.087Z,8.10
2018-10-17T23:57:44.969Z,8.20
